Main page
METAR-TAF:

METAR-TAF

Airports :

Aviano Air Base

Aviano, Italy

latitude: 46-02N, longitude: 012-36E, elevation: 128 m

Current weather observation

The report was made 53 minutes ago, at 08:55 UTC
Wind 1 kt from the Southwest
Temperature 10°C
Humidity 53%
Pressure 1026 hPa
Visibility 10 km or more
no clouds below 1500 m and no cumulonimbus

METAR: LIPA 170855Z 23001KT CAVOK 10/01 Q1026 RMK SKC VIS MIN 9999 WIND THR05 /////KT WIND THR23 /////KT A3031 BLU

Time: 10:48 (09:48 UTC)

Forecast

The report was made 1 hour and 48 minutes ago, at 08:00 UTC
Forecast valid from 17 at 09 UTC to 17 at 18 UTC
Wind 5 kt from variable directions
Visibility 10 km or more
no clouds below 1500 m and no cumulonimbus

TAF: LIPA 170800Z 1709/1718 VRB05KT CAVOK

Weather observations and forecasts of more than 4000 airports (METAR and TAF reports).

The available stations are represented by yellow and red dots on the map.

Hover mouse over dot to see the name of the station.

Then click to see weather observations and forecasts.

To change the map : click on the green buttons with a black cross to zoom in, on the green button with a dash to zoom out, or on the green arrows for adjacent maps.


METAR-TAF: